sensor_id;sensor_type;location;lat;lon;timestamp;pressure;altitude;pressure_sealevel;temperature;humidity
12219;BME280;6172;42.646;23.344;2022-11-14T00:00:13;95722.84;;;2.20;100.00
12219;BME280;6172;42.646;23.344;2022-11-14T00:02:40;95717.81;;;2.31;100.00
12219;BME280;6172;42.646;23.344;2022-11-14T00:05:09;95724.97;;;2.51;100.00
12219;BME280;6172;42.646;23.344;2022-11-14T00:07:36;95716.00;;;2.47;100.00
12219;BME280;6172;42.646;23.344;2022-11-14T00:10:03;95721.16;;;2.52;100.00
12219;BME280;6172;42.646;23.344;2022-11-14T00:12:30;95728.22;;;2.44;100.00
12219;BME280;6172;42.646;23.344;2022-11-14T00:14:57;95728.31;;;2.60;100.00
12219;BME280;6172;42.646;23.344;2022-11-14T00:17:24;95714.53;;;2.73;100.00
12219;BME280;6172;42.646;23.344;2022-11-14T00:19:51;95725.63;;;2.72;100.00
12219;BME280;6172;42.646;23.344;2022-11-14T00:22:19;95725.75;;;2.63;100.00
12219;BME280;6172;42.646;23.344;2022-11-14T00:24:47;95723.31;;;2.46;100.00
12219;BME280;6172;42.646;23.344;2022-11-14T00:27:14;95727.97;;;2.25;100.00
12219;BME280;6172;42.646;23.344;2022-11-14T00:29:40;95728.66;;;2.34;100.00
12219;BME280;6172;42.646;23.344;2022-11-14T00:32:07;95721.03;;;2.24;100.00
12219;BME280;6172;42.646;23.344;2022-11-14T00:34:34;95714.09;;;2.11;100.00
12219;BME280;6172;42.646;23.344;2022-11-14T00:37:01;95731.78;;;2.12;100.00
12219;BME280;6172;42.646;23.344;2022-11-14T00:39:29;95731.00;;;2.00;100.00
12219;BME280;6172;42.646;23.344;2022-11-14T00:41:56;95725.88;;;2.19;100.00
12219;BME280;6172;42.646;23.344;2022-11-14T00:44:23;95730.66;;;2.01;100.00
12219;BME280;6172;42.646;23.344;2022-11-14T00:46:50;95726.19;;;1.93;100.00
12219;BME280;6172;42.646;23.344;2022-11-14T00:49:17;95722.59;;;1.89;100.00
12219;BME280;6172;42.646;23.344;2022-11-14T00:51:44;95722.13;;;1.87;100.00
12219;BME280;6172;42.646;23.344;2022-11-14T00:54:11;95714.25;;;1.70;100.00
12219;BME280;6172;42.646;23.344;2022-11-14T00:56:39;95715.81;;;1.71;100.00
12219;BME280;6172;42.646;23.344;2022-11-14T00:59:06;95715.34;;;1.69;100.00
12219;BME280;6172;42.646;23.344;2022-11-14T01:01:34;95710.56;;;1.75;100.00
12219;BME280;6172;42.646;23.344;2022-11-14T01:04:01;95717.44;;;1.52;100.00
12219;BME280;6172;42.646;23.344;2022-11-14T01:06:28;95719.81;;;1.53;100.00
12219;BME280;6172;42.646;23.344;2022-11-14T01:08:55;95722.78;;;1.84;100.00
12219;BME280;6172;42.646;23.344;2022-11-14T01:11:22;95713.28;;;1.99;100.00
12219;BME280;6172;42.646;23.344;2022-11-14T01:13:50;95718.34;;;2.00;100.00
12219;BME280;6172;42.646;23.344;2022-11-14T01:16:17;95709.38;;;2.08;100.00
12219;BME280;6172;42.646;23.344;2022-11-14T01:18:44;95715.66;;;2.00;100.00
12219;BME280;6172;42.646;23.344;2022-11-14T01:21:12;95708.03;;;2.14;100.00
12219;BME280;6172;42.646;23.344;2022-11-14T01:23:39;95710.75;;;2.26;100.00
12219;BME280;6172;42.646;23.344;2022-11-14T01:26:08;95704.13;;;2.36;100.00
12219;BME280;6172;42.646;23.344;2022-11-14T01:28:35;95702.00;;;2.41;100.00
12219;BME280;6172;42.646;23.344;2022-11-14T01:31:12;95700.88;;;2.42;100.00
12219;BME280;6172;42.646;23.344;2022-11-14T01:33:40;95691.34;;;2.33;100.00
12219;BME280;6172;42.646;23.344;2022-11-14T01:36:08;95695.72;;;2.37;100.00
12219;BME280;6172;42.646;23.344;2022-11-14T01:38:36;95692.13;;;2.45;100.00
12219;BME280;6172;42.646;23.344;2022-11-14T01:41:04;95685.84;;;2.41;100.00
12219;BME280;6172;42.646;23.344;2022-11-14T01:43:32;95678.22;;;2.43;100.00
12219;BME280;6172;42.646;23.344;2022-11-14T01:46:02;95671.50;;;2.49;100.00
12219;BME280;6172;42.646;23.344;2022-11-14T01:48:37;95666.13;;;2.49;100.00
12219;BME280;6172;42.646;23.344;2022-11-14T01:51:14;95677.09;;;2.56;100.00
12219;BME280;6172;42.646;23.344;2022-11-14T01:53:43;95674.28;;;2.53;100.00
12219;BME280;6172;42.646;23.344;2022-11-14T01:56:13;95667.91;;;2.57;100.00
12219;BME280;6172;42.646;23.344;2022-11-14T01:58:43;95667.34;;;2.52;100.00
12219;BME280;6172;42.646;23.344;2022-11-14T02:01:12;95665.22;;;2.45;100.00
12219;BME280;6172;42.646;23.344;2022-11-14T02:03:42;95662.31;;;2.50;100.00
12219;BME280;6172;42.646;23.344;2022-11-14T02:06:13;95656.03;;;2.46;100.00
12219;BME280;6172;42.646;23.344;2022-11-14T02:08:42;95659.94;;;2.49;100.00
12219;BME280;6172;42.646;23.344;2022-11-14T02:11:10;95646.97;;;2.39;100.00
12219;BME280;6172;42.646;23.344;2022-11-14T02:13:37;95655.03;;;2.39;100.00
12219;BME280;6172;42.646;23.344;2022-11-14T02:16:05;95642.72;;;2.38;100.00
12219;BME280;6172;42.646;23.344;2022-11-14T02:18:31;95652.22;;;2.47;100.00
12219;BME280;6172;42.646;23.344;2022-11-14T02:21:00;95652.97;;;2.60;100.00
12219;BME280;6172;42.646;23.344;2022-11-14T02:23:28;95655.03;;;2.39;100.00
12219;BME280;6172;42.646;23.344;2022-11-14T02:25:56;95662.53;;;1.97;100.00
12219;BME280;6172;42.646;23.344;2022-11-14T02:28:23;95666.50;;;1.55;100.00
12219;BME280;6172;42.646;23.344;2022-11-14T02:30:50;95663.63;;;1.60;100.00
12219;BME280;6172;42.646;23.344;2022-11-14T02:33:17;95668.72;;;1.41;100.00
12219;BME280;6172;42.646;23.344;2022-11-14T02:35:44;95664.81;;;1.39;100.00
12219;BME280;6172;42.646;23.344;2022-11-14T02:38:12;95668.88;;;1.57;100.00
12219;BME280;6172;42.646;23.344;2022-11-14T02:40:38;95667.84;;;1.49;100.00
12219;BME280;6172;42.646;23.344;2022-11-14T02:43:05;95671.78;;;1.64;100.00
12219;BME280;6172;42.646;23.344;2022-11-14T02:45:32;95662.53;;;1.73;100.00
12219;BME280;6172;42.646;23.344;2022-11-14T02:47:59;95658.16;;;1.81;100.00
12219;BME280;6172;42.646;23.344;2022-11-14T02:50:26;95665.88;;;1.82;100.00
12219;BME280;6172;42.646;23.344;2022-11-14T02:52:53;95657.91;;;1.74;100.00
12219;BME280;6172;42.646;23.344;2022-11-14T02:55:23;95662.88;;;1.84;100.00
12219;BME280;6172;42.646;23.344;2022-11-14T02:57:50;95659.97;;;1.89;100.00
12219;BME280;6172;42.646;23.344;2022-11-14T03:00:17;95652.25;;;1.87;100.00
12219;BME280;6172;42.646;23.344;2022-11-14T03:02:44;95658.06;;;2.01;100.00
12219;BME280;6172;42.646;23.344;2022-11-14T03:05:11;95647.88;;;2.07;100.00
12219;BME280;6172;42.646;23.344;2022-11-14T03:07:38;95651.00;;;2.09;100.00
12219;BME280;6172;42.646;23.344;2022-11-14T03:10:06;95654.84;;;2.08;100.00
12219;BME280;6172;42.646;23.344;2022-11-14T03:12:35;95650.00;;;2.01;100.00
12219;BME280;6172;42.646;23.344;2022-11-14T03:15:03;95647.41;;;1.93;100.00
12219;BME280;6172;42.646;23.344;2022-11-14T03:17:30;95648.53;;;1.80;100.00
12219;BME280;6172;42.646;23.344;2022-11-14T03:19:57;95651.06;;;1.52;100.00
12219;BME280;6172;42.646;23.344;2022-11-14T03:22:25;95650.13;;;1.36;100.00
12219;BME280;6172;42.646;23.344;2022-11-14T03:24:52;95647.84;;;1.26;100.00
12219;BME280;6172;42.646;23.344;2022-11-14T03:27:19;95649.28;;;1.12;100.00
12219;BME280;6172;42.646;23.344;2022-11-14T03:29:48;95645.78;;;1.11;100.00
12219;BME280;6172;42.646;23.344;2022-11-14T03:32:15;95657.38;;;1.03;100.00
12219;BME280;6172;42.646;23.344;2022-11-14T03:34:41;95657.81;;;0.72;100.00
12219;BME280;6172;42.646;23.344;2022-11-14T03:37:08;95659.50;;;0.56;100.00
12219;BME280;6172;42.646;23.344;2022-11-14T03:39:35;95658.56;;;0.32;100.00
12219;BME280;6172;42.646;23.344;2022-11-14T03:42:02;95650.59;;;0.23;100.00
12219;BME280;6172;42.646;23.344;2022-11-14T03:44:29;95658.53;;;0.11;100.00
12219;BME280;6172;42.646;23.344;2022-11-14T03:46:57;95659.13;;;-0.12;100.00
12219;BME280;6172;42.646;23.344;2022-11-14T03:49:24;95661.94;;;-0.09;100.00
12219;BME280;6172;42.646;23.344;2022-11-14T03:51:51;95664.94;;;-0.10;100.00
12219;BME280;6172;42.646;23.344;2022-11-14T03:54:18;95667.34;;;-0.17;100.00
12219;BME280;6172;42.646;23.344;2022-11-14T03:56:44;95671.31;;;0.06;100.00
12219;BME280;6172;42.646;23.344;2022-11-14T03:59:11;95668.31;;;0.07;100.00
12219;BME280;6172;42.646;23.344;2022-11-14T04:01:38;95649.06;;;-0.15;100.00
12219;BME280;6172;42.646;23.344;2022-11-14T04:04:06;95665.41;;;-0.08;100.00
12219;BME280;6172;42.646;23.344;2022-11-14T04:06:33;95666.22;;;-0.08;100.00
12219;BME280;6172;42.646;23.344;2022-11-14T04:09:00;95671.88;;;-0.09;100.00
12219;BME280;6172;42.646;23.344;2022-11-14T04:11:27;95676.44;;;-0.10;100.00
12219;BME280;6172;42.646;23.344;2022-11-14T04:13:54;95657.53;;;-0.42;100.00
12219;BME280;6172;42.646;23.344;2022-11-14T04:16:20;95661.78;;;-0.50;100.00
12219;BME280;6172;42.646;23.344;2022-11-14T04:18:47;95667.59;;;-0.48;100.00
12219;BME280;6172;42.646;23.344;2022-11-14T04:21:15;95667.75;;;-0.44;100.00
12219;BME280;6172;42.646;23.344;2022-11-14T04:23:42;95676.50;;;-0.18;100.00
12219;BME280;6172;42.646;23.344;2022-11-14T04:26:09;95670.94;;;-0.13;100.00
12219;BME280;6172;42.646;23.344;2022-11-14T04:28:35;95668.94;;;-0.25;100.00
12219;BME280;6172;42.646;23.344;2022-11-14T04:31:02;95673.00;;;-0.19;100.00
12219;BME280;6172;42.646;23.344;2022-11-14T04:33:29;95665.56;;;-0.13;100.00
12219;BME280;6172;42.646;23.344;2022-11-14T04:35:56;95668.53;;;-0.35;100.00
12219;BME280;6172;42.646;23.344;2022-11-14T04:38:24;95677.47;;;-0.31;100.00
12219;BME280;6172;42.646;23.344;2022-11-14T04:40:52;95662.34;;;-0.27;100.00
12219;BME280;6172;42.646;23.344;2022-11-14T04:43:19;95662.22;;;-0.31;100.00
12219;BME280;6172;42.646;23.344;2022-11-14T04:45:46;95667.25;;;-0.29;100.00
12219;BME280;6172;42.646;23.344;2022-11-14T04:48:13;95671.16;;;-0.27;100.00
12219;BME280;6172;42.646;23.344;2022-11-14T04:50:40;95667.69;;;-0.27;100.00
12219;BME280;6172;42.646;23.344;2022-11-14T04:53:07;95667.06;;;-0.24;100.00
12219;BME280;6172;42.646;23.344;2022-11-14T04:55:36;95660.00;;;-0.37;100.00
12219;BME280;6172;42.646;23.344;2022-11-14T04:58:03;95652.47;;;-0.44;100.00
12219;BME280;6172;42.646;23.344;2022-11-14T05:00:31;95652.47;;;-0.44;100.00
12219;BME280;6172;42.646;23.344;2022-11-14T05:02:58;95652.66;;;-0.49;100.00
12219;BME280;6172;42.646;23.344;2022-11-14T05:05:25;95663.16;;;-0.35;100.00
12219;BME280;6172;42.646;23.344;2022-11-14T05:07:53;95671.41;;;-0.57;100.00
12219;BME280;6172;42.646;23.344;2022-11-14T05:10:23;95650.38;;;-0.84;100.00
12219;BME280;6172;42.646;23.344;2022-11-14T05:12:53;95657.31;;;-0.92;100.00
12219;BME280;6172;42.646;23.344;2022-11-14T05:15:21;95661.88;;;-0.92;100.00
12219;BME280;6172;42.646;23.344;2022-11-14T05:17:48;95673.03;;;-0.73;100.00
12219;BME280;6172;42.646;23.344;2022-11-14T05:20:15;95671.94;;;-0.81;100.00
12219;BME280;6172;42.646;23.344;2022-11-14T05:22:42;95674.63;;;-0.72;100.00
12219;BME280;6172;42.646;23.344;2022-11-14T05:25:09;95679.94;;;-0.64;100.00
12219;BME280;6172;42.646;23.344;2022-11-14T05:27:36;95683.25;;;-0.67;100.00
12219;BME280;6172;42.646;23.344;2022-11-14T05:30:06;95684.19;;;-0.63;100.00
12219;BME280;6172;42.646;23.344;2022-11-14T05:32:33;95666.72;;;-0.69;100.00
12219;BME280;6172;42.646;23.344;2022-11-14T05:35:00;95688.41;;;-0.53;100.00
12219;BME280;6172;42.646;23.344;2022-11-14T05:37:27;95680.69;;;-0.55;100.00
12219;BME280;6172;42.646;23.344;2022-11-14T05:39:53;95689.16;;;-0.36;100.00
12219;BME280;6172;42.646;23.344;2022-11-14T05:42:20;95679.88;;;-0.38;100.00
12219;BME280;6172;42.646;23.344;2022-11-14T05:44:47;95685.88;;;-0.50;100.00
12219;BME280;6172;42.646;23.344;2022-11-14T05:47:16;95676.00;;;-0.66;100.00
12219;BME280;6172;42.646;23.344;2022-11-14T05:49:43;95675.88;;;-0.70;100.00
12219;BME280;6172;42.646;23.344;2022-11-14T05:52:10;95688.56;;;-0.50;100.00
12219;BME280;6172;42.646;23.344;2022-11-14T05:54:37;95681.31;;;-0.49;100.00
12219;BME280;6172;42.646;23.344;2022-11-14T05:57:03;95693.19;;;-0.21;100.00
12219;BME280;6172;42.646;23.344;2022-11-14T05:59:30;95696.84;;;-0.26;100.00
12219;BME280;6172;42.646;23.344;2022-11-14T06:01:57;95699.97;;;-0.15;100.00
12219;BME280;6172;42.646;23.344;2022-11-14T06:04:26;95684.63;;;-0.06;100.00
12219;BME280;6172;42.646;23.344;2022-11-14T06:06:52;95703.88;;;0.25;100.00
12219;BME280;6172;42.646;23.344;2022-11-14T06:09:19;95700.00;;;0.14;100.00
12219;BME280;6172;42.646;23.344;2022-11-14T06:11:46;95715.03;;;0.27;100.00
12219;BME280;6172;42.646;23.344;2022-11-14T06:14:13;95713.13;;;0.36;100.00
12219;BME280;6172;42.646;23.344;2022-11-14T06:16:40;95710.75;;;0.34;100.00
12219;BME280;6172;42.646;23.344;2022-11-14T06:19:07;95716.22;;;0.46;100.00
12219;BME280;6172;42.646;23.344;2022-11-14T06:21:35;95717.44;;;0.49;100.00
12219;BME280;6172;42.646;23.344;2022-11-14T06:24:02;95714.72;;;0.57;100.00
12219;BME280;6172;42.646;23.344;2022-11-14T06:26:30;95715.63;;;0.61;100.00
12219;BME280;6172;42.646;23.344;2022-11-14T06:28:58;95713.94;;;0.57;100.00
12219;BME280;6172;42.646;23.344;2022-11-14T06:31:25;95715.34;;;0.34;100.00
12219;BME280;6172;42.646;23.344;2022-11-14T06:33:52;95712.38;;;-0.02;100.00
12219;BME280;6172;42.646;23.344;2022-11-14T06:36:19;95716.75;;;0.31;100.00
12219;BME280;6172;42.646;23.344;2022-11-14T06:38:47;95712.44;;;0.10;100.00
12219;BME280;6172;42.646;23.344;2022-11-14T06:41:16;95715.03;;;-0.02;100.00
12219;BME280;6172;42.646;23.344;2022-11-14T06:43:45;95713.75;;;0.04;100.00
12219;BME280;6172;42.646;23.344;2022-11-14T06:46:15;95708.91;;;0.26;100.00
12219;BME280;6172;42.646;23.344;2022-11-14T06:48:44;95712.94;;;0.12;100.00
12219;BME280;6172;42.646;23.344;2022-11-14T06:51:12;95716.56;;;0.07;100.00
12219;BME280;6172;42.646;23.344;2022-11-14T06:53:41;95710.63;;;0.31;100.00
12219;BME280;6172;42.646;23.344;2022-11-14T06:56:11;95701.50;;;0.52;100.00
12219;BME280;6172;42.646;23.344;2022-11-14T06:58:40;95706.59;;;0.45;100.00
12219;BME280;6172;42.646;23.344;2022-11-14T07:01:11;95706.28;;;0.18;100.00
12219;BME280;6172;42.646;23.344;2022-11-14T07:03:39;95694.16;;;0.12;100.00
12219;BME280;6172;42.646;23.344;2022-11-14T07:06:06;95699.03;;;0.68;100.00
12219;BME280;6172;42.646;23.344;2022-11-14T07:08:33;95690.38;;;0.83;100.00
12219;BME280;6172;42.646;23.344;2022-11-14T07:11:01;95703.47;;;1.05;100.00
12219;BME280;6172;42.646;23.344;2022-11-14T07:13:31;95694.69;;;1.37;100.00
12219;BME280;6172;42.646;23.344;2022-11-14T07:15:58;95703.72;;;1.33;100.00
12219;BME280;6172;42.646;23.344;2022-11-14T07:18:26;95704.38;;;1.30;100.00
12219;BME280;6172;42.646;23.344;2022-11-14T07:20:58;95694.19;;;1.03;100.00
12219;BME280;6172;42.646;23.344;2022-11-14T07:23:26;95697.59;;;1.12;100.00
12219;BME280;6172;42.646;23.344;2022-11-14T07:25:53;95690.38;;;1.24;100.00
12219;BME280;6172;42.646;23.344;2022-11-14T07:28:20;95690.78;;;1.47;100.00
12219;BME280;6172;42.646;23.344;2022-11-14T07:30:48;95691.25;;;1.61;100.00
12219;BME280;6172;42.646;23.344;2022-11-14T07:33:15;95687.47;;;1.62;100.00
12219;BME280;6172;42.646;23.344;2022-11-14T07:35:42;95685.63;;;1.86;100.00
12219;BME280;6172;42.646;23.344;2022-11-14T07:38:08;95675.47;;;1.47;100.00
12219;BME280;6172;42.646;23.344;2022-11-14T07:40:35;95673.66;;;1.51;100.00
12219;BME280;6172;42.646;23.344;2022-11-14T07:43:02;95669.50;;;1.42;100.00
12219;BME280;6172;42.646;23.344;2022-11-14T07:45:29;95657.34;;;1.68;100.00
12219;BME280;6172;42.646;23.344;2022-11-14T07:47:59;95662.31;;;2.02;100.00
12219;BME280;6172;42.646;23.344;2022-11-14T07:50:27;95663.88;;;2.15;100.00
12219;BME280;6172;42.646;23.344;2022-11-14T07:52:55;95663.63;;;1.72;100.00
12219;BME280;6172;42.646;23.344;2022-11-14T07:55:23;95661.63;;;1.81;100.00
12219;BME280;6172;42.646;23.344;2022-11-14T07:57:53;95658.72;;;1.98;100.00
12219;BME280;6172;42.646;23.344;2022-11-14T08:00:21;95661.41;;;1.98;100.00
12219;BME280;6172;42.646;23.344;2022-11-14T08:02:48;95653.78;;;1.64;100.00
12219;BME280;6172;42.646;23.344;2022-11-14T08:05:16;95650.13;;;2.05;100.00
12219;BME280;6172;42.646;23.344;2022-11-14T08:07:45;95661.88;;;2.12;100.00
12219;BME280;6172;42.646;23.344;2022-11-14T08:10:12;95659.84;;;1.85;100.00
12219;BME280;6172;42.646;23.344;2022-11-14T08:12:40;95657.41;;;2.16;100.00
12219;BME280;6172;42.646;23.344;2022-11-14T08:15:09;95660.44;;;2.15;100.00
12219;BME280;6172;42.646;23.344;2022-11-14T08:17:37;95666.13;;;2.25;100.00
12219;BME280;6172;42.646;23.344;2022-11-14T08:20:05;95656.06;;;2.22;100.00
12219;BME280;6172;42.646;23.344;2022-11-14T08:22:34;95651.53;;;2.50;100.00
12219;BME280;6172;42.646;23.344;2022-11-14T08:25:01;95643.47;;;2.38;100.00
12219;BME280;6172;42.646;23.344;2022-11-14T08:27:28;95645.56;;;2.69;100.00
12219;BME280;6172;42.646;23.344;2022-11-14T08:29:55;95635.88;;;2.28;100.00
12219;BME280;6172;42.646;23.344;2022-11-14T08:32:22;95638.91;;;2.03;100.00
12219;BME280;6172;42.646;23.344;2022-11-14T08:34:48;95646.88;;;2.23;100.00
12219;BME280;6172;42.646;23.344;2022-11-14T08:37:15;95645.75;;;2.36;100.00
12219;BME280;6172;42.646;23.344;2022-11-14T08:39:43;95645.03;;;2.51;100.00
12219;BME280;6172;42.646;23.344;2022-11-14T08:42:10;95644.16;;;2.47;100.00
12219;BME280;6172;42.646;23.344;2022-11-14T08:44:37;95641.09;;;2.61;100.00
12219;BME280;6172;42.646;23.344;2022-11-14T08:47:04;95645.22;;;2.70;100.00
12219;BME280;6172;42.646;23.344;2022-11-14T08:49:31;95642.38;;;2.91;100.00
12219;BME280;6172;42.646;23.344;2022-11-14T08:51:59;95635.84;;;3.19;100.00
12219;BME280;6172;42.646;23.344;2022-11-14T08:54:25;95623.78;;;3.29;100.00
12219;BME280;6172;42.646;23.344;2022-11-14T08:56:54;95629.34;;;3.20;100.00
12219;BME280;6172;42.646;23.344;2022-11-14T08:59:20;95628.50;;;3.32;100.00
12219;BME280;6172;42.646;23.344;2022-11-14T09:01:47;95612.00;;;3.06;100.00
12219;BME280;6172;42.646;23.344;2022-11-14T09:04:14;95604.38;;;3.51;100.00
12219;BME280;6172;42.646;23.344;2022-11-14T09:06:44;95596.38;;;3.70;100.00
12219;BME280;6172;42.646;23.344;2022-11-14T09:09:11;95603.94;;;3.96;100.00
12219;BME280;6172;42.646;23.344;2022-11-14T09:11:39;95594.19;;;4.07;100.00
12219;BME280;6172;42.646;23.344;2022-11-14T09:14:07;95589.31;;;4.28;100.00
12219;BME280;6172;42.646;23.344;2022-11-14T09:16:34;95581.72;;;4.68;100.00
12219;BME280;6172;42.646;23.344;2022-11-14T09:19:01;95570.34;;;4.78;100.00
12219;BME280;6172;42.646;23.344;2022-11-14T09:21:28;95567.34;;;5.21;100.00
12219;BME280;6172;42.646;23.344;2022-11-14T09:23:59;95558.78;;;5.19;100.00
12219;BME280;6172;42.646;23.344;2022-11-14T09:26:30;95545.81;;;5.47;100.00
12219;BME280;6172;42.646;23.344;2022-11-14T09:28:57;95556.28;;;5.97;100.00
12219;BME280;6172;42.646;23.344;2022-11-14T09:31:27;95548.41;;;6.41;100.00
12219;BME280;6172;42.646;23.344;2022-11-14T09:33:54;95539.56;;;6.70;100.00
12219;BME280;6172;42.646;23.344;2022-11-14T09:36:21;95538.75;;;6.99;100.00
12219;BME280;6172;42.646;23.344;2022-11-14T09:38:50;95534.41;;;7.64;100.00
12219;BME280;6172;42.646;23.344;2022-11-14T09:41:24;95532.06;;;7.62;100.00
12219;BME280;6172;42.646;23.344;2022-11-14T09:44:25;95527.88;;;7.32;100.00
12219;BME280;6172;42.646;23.344;2022-11-14T09:46:58;95540.44;;;7.90;100.00
12219;BME280;6172;42.646;23.344;2022-11-14T09:49:31;95524.19;;;7.97;100.00
12219;BME280;6172;42.646;23.344;2022-11-14T09:52:08;95521.19;;;8.09;100.00
12219;BME280;6172;42.646;23.344;2022-11-14T09:54:44;95510.38;;;8.17;100.00
12219;BME280;6172;42.646;23.344;2022-11-14T09:57:16;95511.03;;;8.57;100.00
12219;BME280;6172;42.646;23.344;2022-11-14T09:59:43;95500.53;;;8.49;100.00
12219;BME280;6172;42.646;23.344;2022-11-14T10:02:24;95492.63;;;9.12;100.00
12219;BME280;6172;42.646;23.344;2022-11-14T10:05:00;95501.22;;;7.84;100.00
12219;BME280;6172;42.646;23.344;2022-11-14T10:07:40;95498.72;;;8.16;100.00
12219;BME280;6172;42.646;23.344;2022-11-14T10:10:20;95501.34;;;8.60;100.00
12219;BME280;6172;42.646;23.344;2022-11-14T10:12:59;95483.22;;;8.88;100.00
12219;BME280;6172;42.646;23.344;2022-11-14T10:15:34;95480.13;;;8.90;100.00
12219;BME280;6172;42.646;23.344;2022-11-14T10:18:14;95479.47;;;8.35;100.00
12219;BME280;6172;42.646;23.344;2022-11-14T10:20:48;95475.06;;;8.95;100.00
12219;BME280;6172;42.646;23.344;2022-11-14T10:23:30;95466.53;;;8.11;100.00
12219;BME280;6172;42.646;23.344;2022-11-14T10:26:08;95477.31;;;8.72;100.00
12219;BME280;6172;42.646;23.344;2022-11-14T10:28:56;95458.88;;;9.37;100.00
12219;BME280;6172;42.646;23.344;2022-11-14T10:31:34;95462.69;;;9.15;100.00
12219;BME280;6172;42.646;23.344;2022-11-14T10:34:10;95441.75;;;9.68;100.00
12219;BME280;6172;42.646;23.344;2022-11-14T10:36:52;95443.72;;;9.99;100.00
12219;BME280;6172;42.646;23.344;2022-11-14T10:39:27;95435.16;;;9.90;100.00
12219;BME280;6172;42.646;23.344;2022-11-14T10:42:01;95444.84;;;10.16;100.00
12219;BME280;6172;42.646;23.344;2022-11-14T10:44:33;95428.13;;;9.86;100.00
12219;BME280;6172;42.646;23.344;2022-11-14T10:47:04;95434.00;;;10.02;100.00
12219;BME280;6172;42.646;23.344;2022-11-14T10:49:35;95435.03;;;10.50;100.00
12219;BME280;6172;42.646;23.344;2022-11-14T10:52:05;95435.16;;;9.66;100.00
12219;BME280;6172;42.646;23.344;2022-11-14T10:54:39;95424.25;;;9.55;100.00
12219;BME280;6172;42.646;23.344;2022-11-14T10:57:14;95422.31;;;10.15;100.00
12219;BME280;6172;42.646;23.344;2022-11-14T10:59:41;95411.72;;;10.35;100.00
12219;BME280;6172;42.646;23.344;2022-11-14T11:02:08;95411.63;;;10.60;100.00
12219;BME280;6172;42.646;23.344;2022-11-14T11:04:38;95409.63;;;10.74;100.00
12219;BME280;6172;42.646;23.344;2022-11-14T11:07:20;95402.47;;;11.01;97.35
12219;BME280;6172;42.646;23.344;2022-11-14T11:10:06;95403.75;;;10.79;97.84
12219;BME280;6172;42.646;23.344;2022-11-14T11:12:52;95401.31;;;10.95;97.61
12219;BME280;6172;42.646;23.344;2022-11-14T11:15:21;95398.44;;;11.23;96.43
12219;BME280;6172;42.646;23.344;2022-11-14T11:17:55;95401.13;;;11.30;94.29
12219;BME280;6172;42.646;23.344;2022-11-14T11:20:28;95397.97;;;11.35;94.52
12219;BME280;6172;42.646;23.344;2022-11-14T11:23:03;95398.03;;;11.21;93.54
12219;BME280;6172;42.646;23.344;2022-11-14T11:25:32;95397.75;;;11.09;95.51
12219;BME280;6172;42.646;23.344;2022-11-14T11:28:09;95385.63;;;11.13;95.84
12219;BME280;6172;42.646;23.344;2022-11-14T11:30:37;95384.19;;;10.95;97.92
12219;BME280;6172;42.646;23.344;2022-11-14T11:33:22;95381.03;;;11.00;94.30
12219;BME280;6172;42.646;23.344;2022-11-14T11:35:55;95381.47;;;10.91;97.41
12219;BME280;6172;42.646;23.344;2022-11-14T11:38:24;95387.00;;;11.42;93.64
12219;BME280;6172;42.646;23.344;2022-11-14T11:40:57;95381.53;;;11.46;91.84
12219;BME280;6172;42.646;23.344;2022-11-14T11:43:29;95387.72;;;11.50;92.31
12219;BME280;6172;42.646;23.344;2022-11-14T11:46:04;95379.28;;;10.65;95.23
12219;BME280;6172;42.646;23.344;2022-11-14T11:48:36;95377.66;;;10.78;98.99
12219;BME280;6172;42.646;23.344;2022-11-14T11:51:11;95371.41;;;10.78;100.00
12219;BME280;6172;42.646;23.344;2022-11-14T11:53:42;95371.69;;;10.28;100.00
12219;BME280;6172;42.646;23.344;2022-11-14T11:56:15;95364.81;;;10.79;100.00
12219;BME280;6172;42.646;23.344;2022-11-14T11:58:46;95364.84;;;10.68;98.64
12219;BME280;6172;42.646;23.344;2022-11-14T12:01:14;95361.69;;;10.80;100.00
12219;BME280;6172;42.646;23.344;2022-11-14T12:03:45;95360.97;;;11.27;96.54
12219;BME280;6172;42.646;23.344;2022-11-14T12:06:16;95347.03;;;11.66;92.88
12219;BME280;6172;42.646;23.344;2022-11-14T12:09:01;95351.66;;;11.72;90.89
12219;BME280;6172;42.646;23.344;2022-11-14T12:11:32;95350.59;;;11.59;91.74
12219;BME280;6172;42.646;23.344;2022-11-14T12:14:31;95340.09;;;11.58;91.38
12219;BME280;6172;42.646;23.344;2022-11-14T12:20:31;95347.75;;;12.10;87.48
12219;BME280;6172;42.646;23.344;2022-11-14T12:23:24;95333.53;;;11.89;88.34
12219;BME280;6172;42.646;23.344;2022-11-14T12:26:08;95333.28;;;11.32;91.93
12219;BME280;6172;42.646;23.344;2022-11-14T12:28:49;95332.13;;;11.74;90.52
12219;BME280;6172;42.646;23.344;2022-11-14T12:31:26;95334.78;;;11.81;89.94
12219;BME280;6172;42.646;23.344;2022-11-14T12:33:58;95321.44;;;11.49;91.46
12219;BME280;6172;42.646;23.344;2022-11-14T12:36:28;95337.63;;;11.19;94.71
12219;BME280;6172;42.646;23.344;2022-11-14T12:38:57;95327.94;;;10.57;100.00
12219;BME280;6172;42.646;23.344;2022-11-14T12:41:26;95329.38;;;10.75;100.00
12219;BME280;6172;42.646;23.344;2022-11-14T12:44:16;95320.41;;;10.75;100.00
12219;BME280;6172;42.646;23.344;2022-11-14T12:47:19;95323.75;;;11.00;100.00
12219;BME280;6172;42.646;23.344;2022-11-14T12:50:04;95322.94;;;11.06;100.00
12219;BME280;6172;42.646;23.344;2022-11-14T12:52:51;95323.31;;;11.08;100.00
12219;BME280;6172;42.646;23.344;2022-11-14T12:55:55;95331.38;;;11.22;98.29
12219;BME280;6172;42.646;23.344;2022-11-14T12:58:46;95315.06;;;11.15;100.00
12219;BME280;6172;42.646;23.344;2022-11-14T13:01:44;95314.72;;;11.10;100.00
12219;BME280;6172;42.646;23.344;2022-11-14T13:04:23;95313.84;;;11.23;99.63
12219;BME280;6172;42.646;23.344;2022-11-14T13:07:02;95311.81;;;11.38;98.17
12219;BME280;6172;42.646;23.344;2022-11-14T13:09:38;95309.81;;;11.42;96.81
12219;BME280;6172;42.646;23.344;2022-11-14T13:12:35;95310.41;;;11.63;95.50
12219;BME280;6172;42.646;23.344;2022-11-14T13:15:28;95307.13;;;11.75;94.46